sensor_id;sensor_type;location;lat;lon;timestamp;temperature;humidity
2729;DHT22;1372;47.956;7.830;2023-06-10T00:00:48;19.10;99.90
2729;DHT22;1372;47.956;7.830;2023-06-10T00:03:18;19.00;99.90
2729;DHT22;1372;47.956;7.830;2023-06-10T00:05:47;19.00;99.90
2729;DHT22;1372;47.956;7.830;2023-06-10T00:08:16;18.90;99.90
2729;DHT22;1372;47.956;7.830;2023-06-10T00:10:46;18.80;99.90
2729;DHT22;1372;47.956;7.830;2023-06-10T00:13:16;18.80;99.90
2729;DHT22;1372;47.956;7.830;2023-06-10T00:15:46;18.80;99.90
2729;DHT22;1372;47.956;7.830;2023-06-10T00:18:15;18.60;99.90
2729;DHT22;1372;47.956;7.830;2023-06-10T00:20:44;18.50;99.90
2729;DHT22;1372;47.956;7.830;2023-06-10T00:23:16;18.60;99.90
2729;DHT22;1372;47.956;7.830;2023-06-10T00:25:44;18.50;99.90
2729;DHT22;1372;47.956;7.830;2023-06-10T00:28:13;18.40;99.90
2729;DHT22;1372;47.956;7.830;2023-06-10T00:30:45;18.40;99.90
2729;DHT22;1372;47.956;7.830;2023-06-10T00:33:14;18.50;99.90
2729;DHT22;1372;47.956;7.830;2023-06-10T00:35:45;18.50;99.90
2729;DHT22;1372;47.956;7.830;2023-06-10T00:38:14;18.40;99.90
2729;DHT22;1372;47.956;7.830;2023-06-10T00:40:43;18.30;99.90
2729;DHT22;1372;47.956;7.830;2023-06-10T00:43:12;18.10;99.90
2729;DHT22;1372;47.956;7.830;2023-06-10T00:45:41;18.10;99.90
2729;DHT22;1372;47.956;7.830;2023-06-10T00:48:11;18.20;99.90
2729;DHT22;1372;47.956;7.830;2023-06-10T00:50:40;18.10;99.90
2729;DHT22;1372;47.956;7.830;2023-06-10T00:53:09;17.90;99.90
2729;DHT22;1372;47.956;7.830;2023-06-10T00:55:40;17.80;99.90
2729;DHT22;1372;47.956;7.830;2023-06-10T00:58:12;17.70;99.90
2729;DHT22;1372;47.956;7.830;2023-06-10T01:00:41;17.60;99.90
2729;DHT22;1372;47.956;7.830;2023-06-10T01:03:11;17.60;99.90
2729;DHT22;1372;47.956;7.830;2023-06-10T01:05:40;17.70;99.90
2729;DHT22;1372;47.956;7.830;2023-06-10T01:08:16;17.60;99.90
2729;DHT22;1372;47.956;7.830;2023-06-10T01:10:53;17.50;99.90
2729;DHT22;1372;47.956;7.830;2023-06-10T01:13:25;17.50;99.90
2729;DHT22;1372;47.956;7.830;2023-06-10T01:15:56;17.50;99.90
2729;DHT22;1372;47.956;7.830;2023-06-10T01:18:31;17.50;99.90
2729;DHT22;1372;47.956;7.830;2023-06-10T01:21:00;17.50;99.90
2729;DHT22;1372;47.956;7.830;2023-06-10T01:23:31;17.50;99.90
2729;DHT22;1372;47.956;7.830;2023-06-10T01:26:02;17.40;99.90
2729;DHT22;1372;47.956;7.830;2023-06-10T01:28:38;17.40;99.90
2729;DHT22;1372;47.956;7.830;2023-06-10T01:31:16;17.20;99.90
2729;DHT22;1372;47.956;7.830;2023-06-10T01:33:52;17.20;99.90
2729;DHT22;1372;47.956;7.830;2023-06-10T01:36:22;17.20;99.90
2729;DHT22;1372;47.956;7.830;2023-06-10T01:38:54;17.30;99.90
2729;DHT22;1372;47.956;7.830;2023-06-10T01:41:25;17.20;99.90
2729;DHT22;1372;47.956;7.830;2023-06-10T01:43:54;17.20;99.90
2729;DHT22;1372;47.956;7.830;2023-06-10T01:46:23;17.20;99.90
2729;DHT22;1372;47.956;7.830;2023-06-10T01:48:52;17.10;99.90
2729;DHT22;1372;47.956;7.830;2023-06-10T01:51:21;17.10;99.90
2729;DHT22;1372;47.956;7.830;2023-06-10T01:53:49;17.00;99.90
2729;DHT22;1372;47.956;7.830;2023-06-10T01:56:20;17.00;99.90
2729;DHT22;1372;47.956;7.830;2023-06-10T01:58:51;16.90;99.90
2729;DHT22;1372;47.956;7.830;2023-06-10T02:01:24;16.90;99.90
2729;DHT22;1372;47.956;7.830;2023-06-10T02:03:53;16.90;99.90
2729;DHT22;1372;47.956;7.830;2023-06-10T02:06:22;16.90;99.90
2729;DHT22;1372;47.956;7.830;2023-06-10T02:08:51;16.70;99.90
2729;DHT22;1372;47.956;7.830;2023-06-10T02:11:22;16.60;99.90
2729;DHT22;1372;47.956;7.830;2023-06-10T02:13:53;16.70;99.90
2729;DHT22;1372;47.956;7.830;2023-06-10T02:16:24;16.70;99.90
2729;DHT22;1372;47.956;7.830;2023-06-10T02:18:53;16.70;99.90
2729;DHT22;1372;47.956;7.830;2023-06-10T02:21:22;16.70;99.90
2729;DHT22;1372;47.956;7.830;2023-06-10T02:23:51;16.70;99.90
2729;DHT22;1372;47.956;7.830;2023-06-10T02:26:21;16.60;99.90
2729;DHT22;1372;47.956;7.830;2023-06-10T02:28:53;16.40;99.90
2729;DHT22;1372;47.956;7.830;2023-06-10T02:31:22;16.40;99.90
2729;DHT22;1372;47.956;7.830;2023-06-10T02:33:51;16.30;99.90
2729;DHT22;1372;47.956;7.830;2023-06-10T02:36:20;16.30;99.90
2729;DHT22;1372;47.956;7.830;2023-06-10T02:38:51;16.30;99.90
2729;DHT22;1372;47.956;7.830;2023-06-10T02:41:19;16.20;99.90
2729;DHT22;1372;47.956;7.830;2023-06-10T02:43:50;16.20;99.90
2729;DHT22;1372;47.956;7.830;2023-06-10T02:46:18;16.30;99.90
2729;DHT22;1372;47.956;7.830;2023-06-10T02:48:47;16.20;99.90
2729;DHT22;1372;47.956;7.830;2023-06-10T02:51:18;16.00;99.90
2729;DHT22;1372;47.956;7.830;2023-06-10T02:53:48;16.10;99.90
2729;DHT22;1372;47.956;7.830;2023-06-10T02:56:17;16.10;99.90
2729;DHT22;1372;47.956;7.830;2023-06-10T02:58:48;16.10;99.90
2729;DHT22;1372;47.956;7.830;2023-06-10T03:01:21;16.10;99.90
2729;DHT22;1372;47.956;7.830;2023-06-10T03:03:50;16.10;99.90
2729;DHT22;1372;47.956;7.830;2023-06-10T03:06:19;16.00;99.90
2729;DHT22;1372;47.956;7.830;2023-06-10T03:08:48;16.10;99.90
2729;DHT22;1372;47.956;7.830;2023-06-10T03:11:17;16.00;99.90
2729;DHT22;1372;47.956;7.830;2023-06-10T03:13:48;16.00;99.90
2729;DHT22;1372;47.956;7.830;2023-06-10T03:16:19;16.00;99.90
2729;DHT22;1372;47.956;7.830;2023-06-10T03:18:49;15.80;99.90
2729;DHT22;1372;47.956;7.830;2023-06-10T03:21:17;15.90;99.90
2729;DHT22;1372;47.956;7.830;2023-06-10T03:23:46;15.80;99.90
2729;DHT22;1372;47.956;7.830;2023-06-10T03:26:15;15.80;99.90
2729;DHT22;1372;47.956;7.830;2023-06-10T03:28:44;15.70;99.90
2729;DHT22;1372;47.956;7.830;2023-06-10T03:31:14;15.80;99.90
2729;DHT22;1372;47.956;7.830;2023-06-10T03:33:44;15.80;99.90
2729;DHT22;1372;47.956;7.830;2023-06-10T03:36:12;15.70;99.90
2729;DHT22;1372;47.956;7.830;2023-06-10T03:38:42;15.60;99.90
2729;DHT22;1372;47.956;7.830;2023-06-10T03:41:11;15.50;99.90
2729;DHT22;1372;47.956;7.830;2023-06-10T03:43:40;15.50;99.90
2729;DHT22;1372;47.956;7.830;2023-06-10T03:46:10;15.60;99.90
2729;DHT22;1372;47.956;7.830;2023-06-10T03:48:40;15.50;99.90
2729;DHT22;1372;47.956;7.830;2023-06-10T03:51:09;15.50;99.90
2729;DHT22;1372;47.956;7.830;2023-06-10T03:53:38;15.50;99.90
2729;DHT22;1372;47.956;7.830;2023-06-10T03:56:07;15.40;99.90
2729;DHT22;1372;47.956;7.830;2023-06-10T03:58:38;15.40;99.90
2729;DHT22;1372;47.956;7.830;2023-06-10T04:01:06;15.50;99.90
2729;DHT22;1372;47.956;7.830;2023-06-10T04:03:35;15.50;99.90
2729;DHT22;1372;47.956;7.830;2023-06-10T04:06:05;15.30;99.90
2729;DHT22;1372;47.956;7.830;2023-06-10T04:08:34;15.40;99.90
2729;DHT22;1372;47.956;7.830;2023-06-10T04:11:03;15.50;99.90
2729;DHT22;1372;47.956;7.830;2023-06-10T04:13:31;15.40;99.90
2729;DHT22;1372;47.956;7.830;2023-06-10T04:16:01;15.30;99.90
2729;DHT22;1372;47.956;7.830;2023-06-10T04:18:29;15.40;99.90
2729;DHT22;1372;47.956;7.830;2023-06-10T04:20:59;15.40;99.90
2729;DHT22;1372;47.956;7.830;2023-06-10T04:23:30;15.40;99.90
2729;DHT22;1372;47.956;7.830;2023-06-10T04:25:58;15.30;99.90
2729;DHT22;1372;47.956;7.830;2023-06-10T04:28:27;15.40;99.90
2729;DHT22;1372;47.956;7.830;2023-06-10T04:30:56;15.40;99.90
2729;DHT22;1372;47.956;7.830;2023-06-10T04:33:28;15.50;99.90
2729;DHT22;1372;47.956;7.830;2023-06-10T04:35:57;15.50;99.90
2729;DHT22;1372;47.956;7.830;2023-06-10T04:38:26;15.50;99.90
2729;DHT22;1372;47.956;7.830;2023-06-10T04:40:56;15.60;99.90
2729;DHT22;1372;47.956;7.830;2023-06-10T04:43:25;15.60;99.90
2729;DHT22;1372;47.956;7.830;2023-06-10T04:45:57;15.70;99.90
2729;DHT22;1372;47.956;7.830;2023-06-10T04:48:26;15.70;99.90
2729;DHT22;1372;47.956;7.830;2023-06-10T04:50:55;15.70;99.90
2729;DHT22;1372;47.956;7.830;2023-06-10T04:53:24;15.80;99.90
2729;DHT22;1372;47.956;7.830;2023-06-10T04:55:53;15.80;99.90
2729;DHT22;1372;47.956;7.830;2023-06-10T04:58:23;15.80;99.90
2729;DHT22;1372;47.956;7.830;2023-06-10T05:00:52;15.80;99.90
2729;DHT22;1372;47.956;7.830;2023-06-10T05:03:21;15.80;99.90
2729;DHT22;1372;47.956;7.830;2023-06-10T05:05:50;15.90;99.90
2729;DHT22;1372;47.956;7.830;2023-06-10T05:08:18;15.90;99.90
2729;DHT22;1372;47.956;7.830;2023-06-10T05:10:48;16.00;99.90
2729;DHT22;1372;47.956;7.830;2023-06-10T05:13:17;16.10;99.90
2729;DHT22;1372;47.956;7.830;2023-06-10T05:15:47;16.20;99.90
2729;DHT22;1372;47.956;7.830;2023-06-10T05:18:16;16.30;99.90
2729;DHT22;1372;47.956;7.830;2023-06-10T05:20:45;16.40;99.90
2729;DHT22;1372;47.956;7.830;2023-06-10T05:23:14;16.50;99.90
2729;DHT22;1372;47.956;7.830;2023-06-10T05:25:42;16.60;99.90
2729;DHT22;1372;47.956;7.830;2023-06-10T05:28:11;16.70;99.90
2729;DHT22;1372;47.956;7.830;2023-06-10T05:30:42;16.80;99.90
2729;DHT22;1372;47.956;7.830;2023-06-10T05:33:12;16.80;99.90
2729;DHT22;1372;47.956;7.830;2023-06-10T05:35:41;16.90;99.90
2729;DHT22;1372;47.956;7.830;2023-06-10T05:38:10;17.00;99.90
2729;DHT22;1372;47.956;7.830;2023-06-10T05:40:41;17.10;99.90
2729;DHT22;1372;47.956;7.830;2023-06-10T05:43:09;17.20;99.90
2729;DHT22;1372;47.956;7.830;2023-06-10T05:45:41;17.30;99.90
2729;DHT22;1372;47.956;7.830;2023-06-10T05:48:09;17.40;99.90
2729;DHT22;1372;47.956;7.830;2023-06-10T05:50:40;17.40;99.90
2729;DHT22;1372;47.956;7.830;2023-06-10T05:53:09;17.50;99.90
2729;DHT22;1372;47.956;7.830;2023-06-10T05:55:43;17.60;99.90
2729;DHT22;1372;47.956;7.830;2023-06-10T05:58:13;17.70;99.90
2729;DHT22;1372;47.956;7.830;2023-06-10T06:00:42;17.80;99.90
2729;DHT22;1372;47.956;7.830;2023-06-10T06:03:12;17.90;99.90
2729;DHT22;1372;47.956;7.830;2023-06-10T06:05:41;18.00;99.90
2729;DHT22;1372;47.956;7.830;2023-06-10T06:08:10;18.20;99.90
2729;DHT22;1372;47.956;7.830;2023-06-10T06:10:42;18.30;99.90
2729;DHT22;1372;47.956;7.830;2023-06-10T06:13:11;18.50;99.90
2729;DHT22;1372;47.956;7.830;2023-06-10T06:15:40;18.50;99.90
2729;DHT22;1372;47.956;7.830;2023-06-10T06:18:12;18.60;99.90
2729;DHT22;1372;47.956;7.830;2023-06-10T06:20:41;18.70;99.90
2729;DHT22;1372;47.956;7.830;2023-06-10T06:23:10;18.80;99.90
2729;DHT22;1372;47.956;7.830;2023-06-10T06:25:39;18.80;99.90
2729;DHT22;1372;47.956;7.830;2023-06-10T06:28:09;18.90;99.90
2729;DHT22;1372;47.956;7.830;2023-06-10T06:30:38;18.90;99.90
2729;DHT22;1372;47.956;7.830;2023-06-10T06:33:07;19.00;99.90
2729;DHT22;1372;47.956;7.830;2023-06-10T06:35:37;19.00;99.90
2729;DHT22;1372;47.956;7.830;2023-06-10T06:38:07;19.10;99.90
2729;DHT22;1372;47.956;7.830;2023-06-10T06:40:38;19.10;99.90
2729;DHT22;1372;47.956;7.830;2023-06-10T06:43:07;19.20;99.90
2729;DHT22;1372;47.956;7.830;2023-06-10T06:45:36;19.20;99.90
2729;DHT22;1372;47.956;7.830;2023-06-10T06:48:05;19.40;99.90
2729;DHT22;1372;47.956;7.830;2023-06-10T06:50:34;19.40;99.90
2729;DHT22;1372;47.956;7.830;2023-06-10T06:53:05;19.40;99.90
2729;DHT22;1372;47.956;7.830;2023-06-10T06:55:33;19.50;99.90
2729;DHT22;1372;47.956;7.830;2023-06-10T06:58:02;19.60;99.90
2729;DHT22;1372;47.956;7.830;2023-06-10T07:00:31;19.70;99.90
2729;DHT22;1372;47.956;7.830;2023-06-10T07:03:00;19.70;99.90
2729;DHT22;1372;47.956;7.830;2023-06-10T07:05:29;19.70;99.90
2729;DHT22;1372;47.956;7.830;2023-06-10T07:07:58;19.80;99.90
2729;DHT22;1372;47.956;7.830;2023-06-10T07:10:28;19.90;99.90
2729;DHT22;1372;47.956;7.830;2023-06-10T07:12:57;19.90;99.90
2729;DHT22;1372;47.956;7.830;2023-06-10T07:15:26;20.00;99.90
2729;DHT22;1372;47.956;7.830;2023-06-10T07:17:55;20.10;99.90
2729;DHT22;1372;47.956;7.830;2023-06-10T07:20:26;20.10;99.90
2729;DHT22;1372;47.956;7.830;2023-06-10T07:22:54;20.20;99.90
2729;DHT22;1372;47.956;7.830;2023-06-10T07:25:27;20.20;99.90
2729;DHT22;1372;47.956;7.830;2023-06-10T07:27:59;20.30;99.90
2729;DHT22;1372;47.956;7.830;2023-06-10T07:30:28;20.40;99.90
2729;DHT22;1372;47.956;7.830;2023-06-10T07:32:57;20.60;99.90
2729;DHT22;1372;47.956;7.830;2023-06-10T07:35:26;20.60;99.90
2729;DHT22;1372;47.956;7.830;2023-06-10T07:37:54;20.60;99.90
2729;DHT22;1372;47.956;7.830;2023-06-10T07:40:24;20.70;99.90
2729;DHT22;1372;47.956;7.830;2023-06-10T07:42:55;20.70;99.90
2729;DHT22;1372;47.956;7.830;2023-06-10T07:45:24;20.70;99.90
2729;DHT22;1372;47.956;7.830;2023-06-10T07:47:52;20.80;99.90
2729;DHT22;1372;47.956;7.830;2023-06-10T07:50:22;20.80;99.90
2729;DHT22;1372;47.956;7.830;2023-06-10T07:52:51;20.80;99.90
2729;DHT22;1372;47.956;7.830;2023-06-10T07:55:21;21.00;99.90
2729;DHT22;1372;47.956;7.830;2023-06-10T07:57:54;21.00;99.90
2729;DHT22;1372;47.956;7.830;2023-06-10T08:00:23;21.10;99.90
2729;DHT22;1372;47.956;7.830;2023-06-10T08:02:52;21.10;99.90
2729;DHT22;1372;47.956;7.830;2023-06-10T08:05:21;21.00;99.90
2729;DHT22;1372;47.956;7.830;2023-06-10T08:07:50;21.10;99.90
2729;DHT22;1372;47.956;7.830;2023-06-10T08:10:19;21.20;99.90
2729;DHT22;1372;47.956;7.830;2023-06-10T08:12:47;21.20;99.90
2729;DHT22;1372;47.956;7.830;2023-06-10T08:15:17;21.20;99.90
2729;DHT22;1372;47.956;7.830;2023-06-10T08:17:46;21.30;99.90
2729;DHT22;1372;47.956;7.830;2023-06-10T08:20:15;21.40;99.90
2729;DHT22;1372;47.956;7.830;2023-06-10T08:22:44;21.40;99.90
2729;DHT22;1372;47.956;7.830;2023-06-10T08:25:16;21.50;99.90
2729;DHT22;1372;47.956;7.830;2023-06-10T08:27:45;21.60;99.90
2729;DHT22;1372;47.956;7.830;2023-06-10T08:30:14;21.60;99.90
2729;DHT22;1372;47.956;7.830;2023-06-10T08:32:44;21.60;99.90
2729;DHT22;1372;47.956;7.830;2023-06-10T08:35:13;21.80;99.90
2729;DHT22;1372;47.956;7.830;2023-06-10T08:37:42;21.80;99.90
2729;DHT22;1372;47.956;7.830;2023-06-10T08:40:12;21.90;99.90
2729;DHT22;1372;47.956;7.830;2023-06-10T08:42:47;22.00;99.90
2729;DHT22;1372;47.956;7.830;2023-06-10T08:45:18;22.00;99.90
2729;DHT22;1372;47.956;7.830;2023-06-10T08:47:50;22.10;99.90
2729;DHT22;1372;47.956;7.830;2023-06-10T08:50:21;22.20;99.90
2729;DHT22;1372;47.956;7.830;2023-06-10T08:52:54;22.30;99.90
2729;DHT22;1372;47.956;7.830;2023-06-10T08:55:29;22.20;99.90
2729;DHT22;1372;47.956;7.830;2023-06-10T08:58:00;22.30;99.90
2729;DHT22;1372;47.956;7.830;2023-06-10T09:00:32;22.30;99.90
2729;DHT22;1372;47.956;7.830;2023-06-10T09:03:03;22.40;99.90
2729;DHT22;1372;47.956;7.830;2023-06-10T09:05:39;22.50;99.90
2729;DHT22;1372;47.956;7.830;2023-06-10T09:08:08;22.50;99.90
2729;DHT22;1372;47.956;7.830;2023-06-10T09:10:37;22.60;99.90
2729;DHT22;1372;47.956;7.830;2023-06-10T09:13:06;22.60;99.90
2729;DHT22;1372;47.956;7.830;2023-06-10T09:15:37;22.60;99.90
2729;DHT22;1372;47.956;7.830;2023-06-10T09:18:10;22.60;99.90
2729;DHT22;1372;47.956;7.830;2023-06-10T09:20:39;22.70;99.90
2729;DHT22;1372;47.956;7.830;2023-06-10T09:23:09;22.70;99.90
2729;DHT22;1372;47.956;7.830;2023-06-10T09:25:38;22.90;99.90
2729;DHT22;1372;47.956;7.830;2023-06-10T09:28:14;22.90;99.90
2729;DHT22;1372;47.956;7.830;2023-06-10T09:30:43;22.90;99.90
2729;DHT22;1372;47.956;7.830;2023-06-10T09:33:14;23.00;99.90
2729;DHT22;1372;47.956;7.830;2023-06-10T09:35:48;23.10;99.90
2729;DHT22;1372;47.956;7.830;2023-06-10T09:38:21;23.10;99.90
2729;DHT22;1372;47.956;7.830;2023-06-10T09:40:51;23.10;99.90
2729;DHT22;1372;47.956;7.830;2023-06-10T09:43:21;23.10;99.90
2729;DHT22;1372;47.956;7.830;2023-06-10T09:45:51;23.30;99.90
2729;DHT22;1372;47.956;7.830;2023-06-10T09:48:22;23.30;99.90
2729;DHT22;1372;47.956;7.830;2023-06-10T09:50:51;23.50;99.90
2729;DHT22;1372;47.956;7.830;2023-06-10T09:53:20;23.60;99.90
2729;DHT22;1372;47.956;7.830;2023-06-10T09:55:50;23.70;99.90
2729;DHT22;1372;47.956;7.830;2023-06-10T09:58:34;23.80;99.90
2729;DHT22;1372;47.956;7.830;2023-06-10T10:01:09;23.80;99.90
2729;DHT22;1372;47.956;7.830;2023-06-10T10:03:47;23.90;99.90
2729;DHT22;1372;47.956;7.830;2023-06-10T10:06:19;23.90;99.90
2729;DHT22;1372;47.956;7.830;2023-06-10T10:08:50;23.80;99.90
2729;DHT22;1372;47.956;7.830;2023-06-10T10:11:20;23.90;99.90
2729;DHT22;1372;47.956;7.830;2023-06-10T10:13:51;24.00;99.90
2729;DHT22;1372;47.956;7.830;2023-06-10T10:16:21;24.00;99.90
2729;DHT22;1372;47.956;7.830;2023-06-10T10:19:01;24.00;99.90
2729;DHT22;1372;47.956;7.830;2023-06-10T10:21:37;24.10;99.90
2729;DHT22;1372;47.956;7.830;2023-06-10T10:24:16;24.10;99.90
2729;DHT22;1372;47.956;7.830;2023-06-10T10:26:48;24.20;99.90
2729;DHT22;1372;47.956;7.830;2023-06-10T10:29:22;24.20;99.90
2729;DHT22;1372;47.956;7.830;2023-06-10T10:31:55;24.30;99.90
2729;DHT22;1372;47.956;7.830;2023-06-10T10:34:42;24.30;99.90
2729;DHT22;1372;47.956;7.830;2023-06-10T10:37:13;24.50;99.90
2729;DHT22;1372;47.956;7.830;2023-06-10T10:39:43;24.70;99.90
2729;DHT22;1372;47.956;7.830;2023-06-10T10:42:13;24.70;99.90
2729;DHT22;1372;47.956;7.830;2023-06-10T10:44:43;24.70;99.90
2729;DHT22;1372;47.956;7.830;2023-06-10T10:47:14;24.80;99.90
2729;DHT22;1372;47.956;7.830;2023-06-10T10:49:50;24.90;99.90
2729;DHT22;1372;47.956;7.830;2023-06-10T10:52:20;25.10;99.90
2729;DHT22;1372;47.956;7.830;2023-06-10T10:54:49;25.20;99.90
2729;DHT22;1372;47.956;7.830;2023-06-10T10:57:23;25.30;99.90
2729;DHT22;1372;47.956;7.830;2023-06-10T10:59:55;25.30;99.90
2729;DHT22;1372;47.956;7.830;2023-06-10T11:02:40;25.30;99.90
2729;DHT22;1372;47.956;7.830;2023-06-10T11:05:13;25.40;99.90
2729;DHT22;1372;47.956;7.830;2023-06-10T11:07:52;25.50;99.90
2729;DHT22;1372;47.956;7.830;2023-06-10T11:10:31;25.30;99.90
2729;DHT22;1372;47.956;7.830;2023-06-10T11:13:06;25.10;99.90
2729;DHT22;1372;47.956;7.830;2023-06-10T11:15:43;25.10;99.90
2729;DHT22;1372;47.956;7.830;2023-06-10T11:18:19;25.20;99.90
2729;DHT22;1372;47.956;7.830;2023-06-10T11:20:55;25.40;99.90
2729;DHT22;1372;47.956;7.830;2023-06-10T11:23:39;25.50;99.90
2729;DHT22;1372;47.956;7.830;2023-06-10T11:26:30;25.70;99.90
2729;DHT22;1372;47.956;7.830;2023-06-10T11:29:07;25.70;99.90
2729;DHT22;1372;47.956;7.830;2023-06-10T11:31:45;25.50;99.90
2729;DHT22;1372;47.956;7.830;2023-06-10T11:34:24;25.40;99.90
2729;DHT22;1372;47.956;7.830;2023-06-10T11:36:56;25.20;99.90
2729;DHT22;1372;47.956;7.830;2023-06-10T11:39:26;25.10;99.90
2729;DHT22;1372;47.956;7.830;2023-06-10T11:41:58;25.00;99.90
2729;DHT22;1372;47.956;7.830;2023-06-10T11:44:29;25.00;99.90
2729;DHT22;1372;47.956;7.830;2023-06-10T11:47:00;25.10;99.90
2729;DHT22;1372;47.956;7.830;2023-06-10T11:49:29;25.00;99.90
2729;DHT22;1372;47.956;7.830;2023-06-10T11:52:04;25.00;99.90
2729;DHT22;1372;47.956;7.830;2023-06-10T11:54:33;25.00;99.90
2729;DHT22;1372;47.956;7.830;2023-06-10T11:57:03;24.90;99.90
2729;DHT22;1372;47.956;7.830;2023-06-10T11:59:34;24.90;99.90
2729;DHT22;1372;47.956;7.830;2023-06-10T12:02:03;24.90;99.90
2729;DHT22;1372;47.956;7.830;2023-06-10T12:04:32;25.00;99.90
2729;DHT22;1372;47.956;7.830;2023-06-10T12:07:06;25.00;99.90
2729;DHT22;1372;47.956;7.830;2023-06-10T12:09:34;25.00;99.90
2729;DHT22;1372;47.956;7.830;2023-06-10T12:12:05;25.00;99.90
2729;DHT22;1372;47.956;7.830;2023-06-10T12:14:50;25.10;99.90
2729;DHT22;1372;47.956;7.830;2023-06-10T12:17:23;25.10;99.90
2729;DHT22;1372;47.956;7.830;2023-06-10T12:19:57;25.10;99.90
2729;DHT22;1372;47.956;7.830;2023-06-10T12:22:36;25.10;99.90
2729;DHT22;1372;47.956;7.830;2023-06-10T12:25:06;25.10;99.90
2729;DHT22;1372;47.956;7.830;2023-06-10T12:27:39;25.10;99.90
2729;DHT22;1372;47.956;7.830;2023-06-10T12:30:08;25.10;99.90
2729;DHT22;1372;47.956;7.830;2023-06-10T12:32:42;25.20;99.90
2729;DHT22;1372;47.956;7.830;2023-06-10T12:35:15;25.50;99.90
2729;DHT22;1372;47.956;7.830;2023-06-10T12:37:57;25.60;99.90
2729;DHT22;1372;47.956;7.830;2023-06-10T12:40:29;25.50;99.90
2729;DHT22;1372;47.956;7.830;2023-06-10T12:43:02;25.40;99.90
2729;DHT22;1372;47.956;7.830;2023-06-10T12:45:32;25.30;99.90
2729;DHT22;1372;47.956;7.830;2023-06-10T12:48:07;25.20;99.90
2729;DHT22;1372;47.956;7.830;2023-06-10T12:50:38;25.10;99.90
2729;DHT22;1372;47.956;7.830;2023-06-10T12:53:11;25.00;99.90
2729;DHT22;1372;47.956;7.830;2023-06-10T12:55:40;24.90;99.90
2729;DHT22;1372;47.956;7.830;2023-06-10T12:58:10;24.50;99.90
2729;DHT22;1372;47.956;7.830;2023-06-10T13:00:39;23.80;99.90
2729;DHT22;1372;47.956;7.830;2023-06-10T13:03:10;23.50;99.90
2729;DHT22;1372;47.956;7.830;2023-06-10T13:05:40;23.10;99.90
2729;DHT22;1372;47.956;7.830;2023-06-10T13:08:10;23.10;99.90
2729;DHT22;1372;47.956;7.830;2023-06-10T13:10:39;23.00;99.90
2729;DHT22;1372;47.956;7.830;2023-06-10T13:13:08;23.00;99.90
2729;DHT22;1372;47.956;7.830;2023-06-10T13:15:37;23.40;99.90
2729;DHT22;1372;47.956;7.830;2023-06-10T13:18:10;23.80;99.90
2729;DHT22;1372;47.956;7.830;2023-06-10T13:20:41;24.20;99.90
2729;DHT22;1372;47.956;7.830;2023-06-10T13:23:12;24.30;99.90
2729;DHT22;1372;47.956;7.830;2023-06-10T13:25:41;24.50;99.90
2729;DHT22;1372;47.956;7.830;2023-06-10T13:28:11;24.70;99.90
2729;DHT22;1372;47.956;7.830;2023-06-10T13:30:40;24.90;99.90
2729;DHT22;1372;47.956;7.830;2023-06-10T13:33:13;25.00;99.90
2729;DHT22;1372;47.956;7.830;2023-06-10T13:35:42;25.20;99.90
2729;DHT22;1372;47.956;7.830;2023-06-10T13:38:13;25.50;99.90
2729;DHT22;1372;47.956;7.830;2023-06-10T13:40:42;25.70;99.90
2729;DHT22;1372;47.956;7.830;2023-06-10T13:43:11;26.00;99.90
2729;DHT22;1372;47.956;7.830;2023-06-10T13:45:40;26.20;99.90
2729;DHT22;1372;47.956;7.830;2023-06-10T13:48:09;26.30;99.90
2729;DHT22;1372;47.956;7.830;2023-06-10T13:50:38;26.30;99.90
2729;DHT22;1372;47.956;7.830;2023-06-10T13:53:07;26.40;99.90
2729;DHT22;1372;47.956;7.830;2023-06-10T13:55:37;26.60;99.90
2729;DHT22;1372;47.956;7.830;2023-06-10T13:58:06;26.70;99.90
2729;DHT22;1372;47.956;7.830;2023-06-10T14:00:35;26.80;99.90
2729;DHT22;1372;47.956;7.830;2023-06-10T14:03:06;27.00;99.90
2729;DHT22;1372;47.956;7.830;2023-06-10T14:05:35;27.10;99.90
2729;DHT22;1372;47.956;7.830;2023-06-10T14:08:04;27.20;99.90
2729;DHT22;1372;47.956;7.830;2023-06-10T14:10:33;27.40;99.90
2729;DHT22;1372;47.956;7.830;2023-06-10T14:13:03;27.50;99.90
2729;DHT22;1372;47.956;7.830;2023-06-10T14:15:32;27.70;99.90
2729;DHT22;1372;47.956;7.830;2023-06-10T14:18:01;27.60;99.90
2729;DHT22;1372;47.956;7.830;2023-06-10T14:20:30;27.80;99.90
2729;DHT22;1372;47.956;7.830;2023-06-10T14:22:58;27.80;99.90
2729;DHT22;1372;47.956;7.830;2023-06-10T14:25:27;27.80;99.90
2729;DHT22;1372;47.956;7.830;2023-06-10T14:27:56;27.90;99.90
2729;DHT22;1372;47.956;7.830;2023-06-10T14:30:28;28.10;99.90
2729;DHT22;1372;47.956;7.830;2023-06-10T14:32:57;28.10;99.90
2729;DHT22;1372;47.956;7.830;2023-06-10T14:35:27;28.10;99.90
2729;DHT22;1372;47.956;7.830;2023-06-10T14:37:56;28.20;99.90
2729;DHT22;1372;47.956;7.830;2023-06-10T14:40:24;27.90;99.90
2729;DHT22;1372;47.956;7.830;2023-06-10T14:42:55;27.60;99.90
2729;DHT22;1372;47.956;7.830;2023-06-10T14:45:24;27.50;99.90
2729;DHT22;1372;47.956;7.830;2023-06-10T14:47:55;27.40;99.90
2729;DHT22;1372;47.956;7.830;2023-06-10T14:50:23;27.20;99.90
2729;DHT22;1372;47.956;7.830;2023-06-10T14:52:53;27.00;99.90
2729;DHT22;1372;47.956;7.830;2023-06-10T14:55:21;26.80;99.90
2729;DHT22;1372;47.956;7.830;2023-06-10T14:57:50;26.60;99.90
2729;DHT22;1372;47.956;7.830;2023-06-10T15:00:19;26.40;99.90
2729;DHT22;1372;47.956;7.830;2023-06-10T15:02:54;26.40;99.90
2729;DHT22;1372;47.956;7.830;2023-06-10T15:05:24;26.90;99.90
2729;DHT22;1372;47.956;7.830;2023-06-10T15:07:53;27.40;99.90
2729;DHT22;1372;47.956;7.830;2023-06-10T15:10:23;27.70;99.90
2729;DHT22;1372;47.956;7.830;2023-06-10T15:12:55;27.90;99.90
2729;DHT22;1372;47.956;7.830;2023-06-10T15:15:24;28.10;99.90
2729;DHT22;1372;47.956;7.830;2023-06-10T15:17:55;28.30;99.90
2729;DHT22;1372;47.956;7.830;2023-06-10T15:20:24;28.40;99.90
2729;DHT22;1372;47.956;7.830;2023-06-10T15:22:53;28.50;99.90
2729;DHT22;1372;47.956;7.830;2023-06-10T15:25:24;28.60;99.90
2729;DHT22;1372;47.956;7.830;2023-06-10T15:27:57;28.80;99.90
2729;DHT22;1372;47.956;7.830;2023-06-10T15:30:26;29.00;99.90
2729;DHT22;1372;47.956;7.830;2023-06-10T15:36:02;29.00;99.90
2729;DHT22;1372;47.956;7.830;2023-06-10T15:38:32;29.00;99.90
2729;DHT22;1372;47.956;7.830;2023-06-10T15:41:01;28.90;99.90
2729;DHT22;1372;47.956;7.830;2023-06-10T15:43:30;28.90;99.90
2729;DHT22;1372;47.956;7.830;2023-06-10T15:45:59;28.90;99.90
2729;DHT22;1372;47.956;7.830;2023-06-10T15:48:29;28.90;99.90
2729;DHT22;1372;47.956;7.830;2023-06-10T15:50:59;28.50;99.90
2729;DHT22;1372;47.956;7.830;2023-06-10T15:53:28;28.10;99.90
2729;DHT22;1372;47.956;7.830;2023-06-10T15:55:56;27.70;99.90
2729;DHT22;1372;47.956;7.830;2023-06-10T15:58:25;27.50;99.90
2729;DHT22;1372;47.956;7.830;2023-06-10T16:00:54;27.30;99.90
2729;DHT22;1372;47.956;7.830;2023-06-10T16:03:23;27.10;99.90
2729;DHT22;1372;47.956;7.830;2023-06-10T16:05:54;27.10;99.90
2729;DHT22;1372;47.956;7.830;2023-06-10T16:08:23;27.00;99.90
2729;DHT22;1372;47.956;7.830;2023-06-10T16:10:51;27.30;99.90
2729;DHT22;1372;47.956;7.830;2023-06-10T16:13:20;27.50;99.90
2729;DHT22;1372;47.956;7.830;2023-06-10T16:15:49;27.70;99.90
2729;DHT22;1372;47.956;7.830;2023-06-10T16:18:18;28.00;99.90
2729;DHT22;1372;47.956;7.830;2023-06-10T16:20:47;28.10;99.90
2729;DHT22;1372;47.956;7.830;2023-06-10T16:23:19;28.10;99.90
2729;DHT22;1372;47.956;7.830;2023-06-10T16:25:48;28.10;99.90